createdAt,value
2023-05-12T00:00:07.817Z,13.81
2023-05-12T00:01:07.851Z,13.16
2023-05-12T00:02:07.965Z,6.72
2023-05-12T00:03:08.149Z,6.40
2023-05-12T00:04:08.327Z,13.49
2023-05-12T00:05:08.227Z,11.23
2023-05-12T00:06:08.297Z,13.16
2023-05-12T00:07:08.367Z,16.06
2023-05-12T00:08:08.423Z,13.16
2023-05-12T00:09:08.523Z,3.82
2023-05-12T00:10:08.619Z,5.43
2023-05-12T00:11:08.702Z,12.52
2023-05-12T00:12:08.798Z,13.16
2023-05-12T00:13:08.857Z,8.97
2023-05-12T00:14:08.955Z,16.06
2023-05-12T00:15:09.021Z,16.39
2023-05-12T00:16:09.152Z,12.84
2023-05-12T00:17:09.174Z,13.16
2023-05-12T00:18:09.234Z,6.07
2023-05-12T00:19:09.517Z,13.49
2023-05-12T00:20:09.394Z,12.84
2023-05-12T00:21:09.446Z,13.49
2023-05-12T00:22:09.545Z,19.29
2023-05-12T00:23:09.637Z,13.16
2023-05-12T00:24:09.733Z,12.52
2023-05-12T00:25:09.832Z,13.49
2023-05-12T00:26:09.927Z,12.84
2023-05-12T00:27:09.957Z,13.49
2023-05-12T00:28:10.179Z,15.42
2023-05-12T00:29:10.151Z,11.23
2023-05-12T00:30:10.251Z,14.78
2023-05-12T00:31:10.362Z,20.90
2023-05-12T00:32:10.395Z,13.16
2023-05-12T00:33:10.484Z,14.45
2023-05-12T00:34:10.556Z,4.14
2023-05-12T00:35:10.655Z,13.16
2023-05-12T00:36:10.730Z,9.62
2023-05-12T00:37:10.809Z,15.74
2023-05-12T00:38:10.879Z,17.35
2023-05-12T00:39:10.971Z,3.82
2023-05-12T00:40:11.074Z,21.87
2023-05-12T00:41:11.143Z,8.01
2023-05-12T00:42:11.224Z,6.72
2023-05-12T00:43:11.300Z,12.52
2023-05-12T00:44:11.396Z,13.49
2023-05-12T00:45:11.496Z,15.10
2023-05-12T00:46:11.669Z,5.11
2023-05-12T00:47:11.694Z,9.30
2023-05-12T00:48:11.858Z,19.61
2023-05-12T00:49:11.864Z,13.81
2023-05-12T00:50:11.926Z,12.52
2023-05-12T00:51:12.453Z,12.20
2023-05-12T00:52:12.115Z,10.26
2023-05-12T00:53:12.171Z,12.84
2023-05-12T00:54:12.270Z,12.20
2023-05-12T00:55:12.364Z,12.84
2023-05-12T00:56:12.531Z,12.84
2023-05-12T00:57:12.572Z,12.84
2023-05-12T00:58:12.614Z,8.97
2023-05-12T00:59:12.708Z,12.84
2023-05-12T01:00:12.803Z,12.84
2023-05-12T01:01:13.002Z,20.25
2023-05-12T01:02:13.034Z,7.69
2023-05-12T01:03:13.243Z,12.84
2023-05-12T01:04:13.129Z,3.82
2023-05-12T01:05:13.214Z,6.40
2023-05-12T01:06:13.322Z,4.46
2023-05-12T01:07:13.362Z,10.59
2023-05-12T01:08:13.461Z,7.36
2023-05-12T01:09:13.561Z,12.52
2023-05-12T01:10:13.625Z,12.84
2023-05-12T01:11:13.720Z,18.32
2023-05-12T01:12:13.797Z,12.84
2023-05-12T01:13:13.842Z,13.16
2023-05-12T01:14:13.952Z,12.84
2023-05-12T01:15:14.036Z,12.84
2023-05-12T01:16:14.127Z,14.13
2023-05-12T01:17:14.205Z,14.45
2023-05-12T01:18:14.269Z,18.00
2023-05-12T01:19:14.400Z,15.10
2023-05-12T01:20:14.427Z,12.20
2023-05-12T01:21:14.523Z,12.84
2023-05-12T01:22:14.631Z,12.52
2023-05-12T01:23:14.686Z,11.87
2023-05-12T01:24:14.778Z,3.50
2023-05-12T01:25:14.880Z,13.81
2023-05-12T01:26:14.931Z,9.94
2023-05-12T01:27:15.039Z,12.84
2023-05-12T01:28:15.098Z,23.80
2023-05-12T01:29:15.172Z,17.35
2023-05-12T01:30:15.300Z,12.52
2023-05-12T01:31:15.434Z,13.81
2023-05-12T01:32:15.432Z,18.96
2023-05-12T01:33:15.522Z,12.20
2023-05-12T01:34:15.627Z,11.87
2023-05-12T01:35:15.687Z,7.36
2023-05-12T01:36:15.882Z,12.52
2023-05-12T01:37:15.879Z,12.52
2023-05-12T01:38:15.930Z,5.75
2023-05-12T01:39:15.993Z,13.81
2023-05-12T01:40:16.096Z,8.33
2023-05-12T01:41:16.140Z,12.84
2023-05-12T01:42:16.231Z,13.16
2023-05-12T01:43:16.334Z,3.82
2023-05-12T01:44:16.412Z,14.13
2023-05-12T01:45:16.522Z,13.16
2023-05-12T01:46:16.648Z,12.52
2023-05-12T01:47:16.696Z,12.84
2023-05-12T01:48:16.789Z,12.20
2023-05-12T01:49:16.895Z,12.20
2023-05-12T01:50:16.993Z,12.84
2023-05-12T01:51:17.018Z,12.84
2023-05-12T01:52:17.103Z,12.52
2023-05-12T01:53:17.184Z,19.61
2023-05-12T01:54:17.251Z,14.45
2023-05-12T01:55:17.314Z,17.35
2023-05-12T01:56:17.367Z,3.82
2023-05-12T01:57:17.449Z,6.40
2023-05-12T01:58:17.561Z,6.07
2023-05-12T01:59:17.681Z,12.84
2023-05-12T02:00:18.007Z,12.20
2023-05-12T02:01:17.839Z,21.22
2023-05-12T02:02:17.881Z,12.20
2023-05-12T02:03:18.017Z,15.74
2023-05-12T02:04:18.052Z,11.87
2023-05-12T02:05:18.102Z,12.20
2023-05-12T02:06:18.200Z,15.10
2023-05-12T02:07:18.312Z,16.06
2023-05-12T02:08:18.370Z,18.00
2023-05-12T02:09:18.473Z,13.16
2023-05-12T02:10:18.841Z,8.01
2023-05-12T02:11:18.616Z,19.93
2023-05-12T02:12:18.722Z,15.10
2023-05-12T02:13:18.820Z,12.20
2023-05-12T02:14:18.876Z,12.84
2023-05-12T02:15:18.989Z,12.84
2023-05-12T02:16:19.182Z,14.13
2023-05-12T02:17:19.137Z,13.16
2023-05-12T02:18:19.201Z,12.52
2023-05-12T02:19:19.326Z,12.84
2023-05-12T02:20:19.661Z,6.07
2023-05-12T02:21:19.490Z,13.81
2023-05-12T02:22:19.545Z,11.55
2023-05-12T02:23:19.612Z,13.81
2023-05-12T02:24:19.683Z,18.32
2023-05-12T02:25:19.753Z,12.20
2023-05-12T02:26:19.804Z,12.52
2023-05-12T02:27:19.888Z,12.52
2023-05-12T02:28:19.964Z,17.03
2023-05-12T02:29:20.066Z,11.87
2023-05-12T02:30:20.350Z,11.55
2023-05-12T02:31:20.255Z,13.16
2023-05-12T02:32:20.348Z,3.50
2023-05-12T02:33:20.381Z,4.14
2023-05-12T02:34:20.462Z,11.55
2023-05-12T02:35:20.582Z,12.52
2023-05-12T02:36:20.660Z,12.20
2023-05-12T02:37:20.723Z,3.50
2023-05-12T02:38:20.799Z,12.84
2023-05-12T02:39:20.902Z,5.11
2023-05-12T02:40:21.203Z,12.52
2023-05-12T02:41:21.125Z,14.45
2023-05-12T02:42:21.171Z,12.20
2023-05-12T02:43:21.238Z,5.43
2023-05-12T02:44:21.317Z,12.20
2023-05-12T02:45:21.423Z,12.52
2023-05-12T02:46:21.568Z,4.14
2023-05-12T02:47:21.649Z,11.87
2023-05-12T02:48:21.632Z,12.20
2023-05-12T02:49:21.708Z,11.87
2023-05-12T02:50:21.989Z,5.75
2023-05-12T02:51:21.894Z,12.20
2023-05-12T02:52:21.953Z,12.20
2023-05-12T02:53:22.013Z,10.59
2023-05-12T02:54:22.108Z,12.52
2023-05-12T02:55:22.212Z,12.20
2023-05-12T02:56:22.306Z,12.52
2023-05-12T02:57:22.359Z,12.20
2023-05-12T02:58:22.464Z,15.10
2023-05-12T02:59:22.542Z,1.88
2023-05-12T03:00:22.618Z,4.79
2023-05-12T03:01:22.760Z,17.68
2023-05-12T03:02:22.844Z,11.55
2023-05-12T03:03:22.960Z,3.82
2023-05-12T03:04:22.975Z,7.04
2023-05-12T03:05:23.053Z,16.71
2023-05-12T03:06:23.152Z,13.16
2023-05-12T03:07:23.194Z,2.85
2023-05-12T03:08:23.282Z,21.54
2023-05-12T03:09:23.356Z,12.52
2023-05-12T03:10:23.578Z,12.20
2023-05-12T03:11:23.534Z,12.20
2023-05-12T03:12:23.618Z,11.87
2023-05-12T03:13:23.686Z,12.52
2023-05-12T03:14:23.769Z,8.01
2023-05-12T03:15:23.877Z,21.87
2023-05-12T03:16:23.975Z,12.52
2023-05-12T03:17:24.049Z,12.84
2023-05-12T03:18:24.159Z,12.20
2023-05-12T03:19:24.170Z,19.61
2023-05-12T03:20:24.236Z,13.16
2023-05-12T03:21:24.329Z,16.71
2023-05-12T03:22:24.429Z,3.17
2023-05-12T03:23:24.450Z,12.84
2023-05-12T03:24:24.559Z,19.93
2023-05-12T03:25:24.614Z,11.87
2023-05-12T03:26:24.682Z,6.07
2023-05-12T03:27:24.760Z,10.59
2023-05-12T03:28:24.852Z,12.20
2023-05-12T03:29:24.934Z,11.55
2023-05-12T03:30:24.971Z,13.81
2023-05-12T03:31:25.077Z,11.87
2023-05-12T03:32:25.178Z,14.78
2023-05-12T03:33:25.213Z,8.97
2023-05-12T03:34:25.305Z,12.20
2023-05-12T03:35:25.360Z,16.06
2023-05-12T03:36:25.459Z,15.10
2023-05-12T03:37:25.539Z,12.20
2023-05-12T03:38:25.633Z,14.45
2023-05-12T03:39:25.684Z,4.14
2023-05-12T03:40:25.758Z,11.55
2023-05-12T03:41:25.826Z,7.04
2023-05-12T03:42:25.932Z,8.33
2023-05-12T03:43:26.034Z,9.94
2023-05-12T03:44:26.113Z,11.55
2023-05-12T03:45:26.174Z,7.04
2023-05-12T03:46:26.307Z,11.55
2023-05-12T03:47:29.002Z,20.58
2023-05-12T03:48:26.441Z,5.43
2023-05-12T03:49:26.506Z,11.87
2023-05-12T03:50:26.585Z,12.20
2023-05-12T03:51:26.632Z,11.55
2023-05-12T03:52:26.734Z,12.20
2023-05-12T03:53:26.795Z,11.55
2023-05-12T03:54:26.880Z,12.20
2023-05-12T03:55:26.953Z,11.87
2023-05-12T03:56:27.068Z,19.29
2023-05-12T03:57:27.116Z,12.84
2023-05-12T03:58:27.205Z,12.52
2023-05-12T03:59:27.310Z,20.58
2023-05-12T04:00:27.351Z,7.36
2023-05-12T04:01:27.455Z,12.20
2023-05-12T04:02:27.694Z,11.87
2023-05-12T04:03:27.753Z,11.87
2023-05-12T04:04:27.722Z,9.30
2023-05-12T04:05:27.775Z,1.88
2023-05-12T04:06:27.872Z,4.14
2023-05-12T04:07:27.941Z,15.74
2023-05-12T04:08:28.025Z,1.24
2023-05-12T04:09:28.121Z,12.20
2023-05-12T04:10:28.228Z,11.87
2023-05-12T04:11:28.313Z,7.36
2023-05-12T04:12:28.410Z,12.52
2023-05-12T04:13:28.475Z,11.23
2023-05-12T04:14:39.141Z,19.61
2023-05-12T04:15:28.680Z,15.42
2023-05-12T04:16:28.782Z,7.69
2023-05-12T04:17:28.854Z,11.55
2023-05-12T04:18:29.928Z,10.59
2023-05-12T04:19:29.007Z,13.81
2023-05-12T04:20:29.121Z,10.59
2023-05-12T04:21:29.187Z,11.87
2023-05-12T04:22:29.266Z,7.69
2023-05-12T04:23:29.377Z,6.40
2023-05-12T04:24:29.421Z,11.55
2023-05-12T04:25:29.534Z,11.87
2023-05-12T04:26:29.553Z,11.23
2023-05-12T04:27:29.627Z,12.20
2023-05-12T04:28:29.679Z,11.87
2023-05-12T04:29:29.765Z,12.20
2023-05-12T04:30:29.846Z,11.55
2023-05-12T04:31:29.938Z,13.81
2023-05-12T04:32:30.017Z,13.81
2023-05-12T04:33:30.091Z,11.87
2023-05-12T04:34:30.144Z,12.20
2023-05-12T04:35:30.237Z,11.87
2023-05-12T04:36:30.339Z,11.87
2023-05-12T04:37:30.403Z,12.52
2023-05-12T04:38:30.472Z,14.45
2023-05-12T04:39:30.557Z,11.55
2023-05-12T04:40:32.659Z,11.55
2023-05-12T04:41:30.757Z,11.55
2023-05-12T04:42:30.807Z,7.69
2023-05-12T04:44:30.975Z,10.91
2023-05-12T04:45:31.070Z,11.55
2023-05-12T04:46:31.205Z,18.32
2023-05-12T04:47:31.238Z,13.16
2023-05-12T04:48:31.301Z,11.55
2023-05-12T04:49:31.364Z,0.92
2023-05-12T04:50:31.443Z,11.87
2023-05-12T04:51:31.576Z,7.04
2023-05-12T04:52:31.609Z,21.87
2023-05-12T04:53:31.668Z,11.87
2023-05-12T04:54:31.758Z,3.82
2023-05-12T04:55:31.857Z,14.13
2023-05-12T04:56:31.944Z,9.94
2023-05-12T04:57:32.035Z,17.68
2023-05-12T04:58:32.092Z,6.40
2023-05-12T04:59:32.175Z,12.52
2023-05-12T05:00:32.281Z,18.32
2023-05-12T05:01:32.364Z,11.87
2023-05-12T05:02:32.526Z,6.40
2023-05-12T05:03:32.598Z,6.72
2023-05-12T05:04:32.623Z,3.82
2023-05-12T05:05:32.714Z,11.87
2023-05-12T05:06:32.769Z,12.20
2023-05-12T05:07:32.858Z,11.23
2023-05-12T05:08:32.913Z,11.87
2023-05-12T05:09:34.509Z,16.39
2023-05-12T05:10:33.086Z,12.20
2023-05-12T05:11:33.169Z,12.84
2023-05-12T05:12:33.289Z,11.55
2023-05-12T05:13:33.333Z,12.20
2023-05-12T05:14:33.412Z,12.20
2023-05-12T05:15:33.561Z,12.84
2023-05-12T05:16:33.587Z,12.20
2023-05-12T05:17:33.730Z,19.29
2023-05-12T05:18:33.818Z,12.84
2023-05-12T05:19:46.187Z,11.87
2023-05-12T05:20:33.991Z,12.20
2023-05-12T05:21:34.060Z,7.36
2023-05-12T05:22:34.103Z,12.84
2023-05-12T05:23:34.200Z,21.87
2023-05-12T05:24:34.311Z,11.87
2023-05-12T05:25:34.378Z,12.52
2023-05-12T05:26:34.472Z,12.52
2023-05-12T05:27:34.611Z,12.20
2023-05-12T05:28:34.664Z,12.20
2023-05-12T05:29:40.705Z,12.52
2023-05-12T05:30:34.827Z,12.84
2023-05-12T05:31:34.914Z,8.65
2023-05-12T05:32:36.493Z,12.84
2023-05-12T05:33:35.078Z,13.16
2023-05-12T05:34:35.248Z,12.52
2023-05-12T05:35:35.242Z,12.52
2023-05-12T05:36:35.299Z,18.00
2023-05-12T05:37:35.389Z,2.21
2023-05-12T05:38:35.497Z,13.81
2023-05-12T05:39:35.598Z,21.22
2023-05-12T05:40:48.823Z,15.10
2023-05-12T05:41:35.721Z,9.62
2023-05-12T05:42:35.833Z,14.45
2023-05-12T05:43:35.896Z,7.04
2023-05-12T05:44:35.998Z,12.84
2023-05-12T05:45:36.093Z,13.16
2023-05-12T05:46:36.130Z,16.71
2023-05-12T05:47:36.227Z,12.84
2023-05-12T05:48:36.305Z,19.29
2023-05-12T05:49:36.360Z,10.26
2023-05-12T05:50:36.457Z,12.84
2023-05-12T05:51:36.592Z,13.16
2023-05-12T05:52:36.612Z,7.04
2023-05-12T05:53:36.700Z,12.84
2023-05-12T05:54:36.805Z,13.81
2023-05-12T05:55:36.862Z,20.58
2023-05-12T05:56:36.986Z,12.52
2023-05-12T05:57:37.060Z,13.16
2023-05-12T05:58:37.119Z,3.50
2023-05-12T05:59:37.225Z,13.16
2023-05-12T06:00:37.321Z,13.16
2023-05-12T06:01:37.365Z,20.25
2023-05-12T06:02:37.470Z,12.84
2023-05-12T06:03:37.580Z,2.21
2023-05-12T06:04:37.608Z,12.52
2023-05-12T06:05:37.697Z,13.49
2023-05-12T06:06:37.750Z,13.16
2023-05-12T06:07:37.812Z,12.52
2023-05-12T06:08:37.924Z,12.84
2023-05-12T06:09:37.999Z,16.39
2023-05-12T06:10:38.106Z,13.81
2023-05-12T06:11:38.196Z,14.45
2023-05-12T06:12:38.259Z,14.45
2023-05-12T06:13:38.335Z,4.14
2023-05-12T06:14:38.414Z,13.81
2023-05-12T06:15:38.504Z,21.22
2023-05-12T06:16:38.678Z,15.74
2023-05-12T06:17:38.732Z,13.81
2023-05-12T06:18:38.824Z,21.22
2023-05-12T06:19:38.857Z,4.46
2023-05-12T06:20:38.962Z,8.65
2023-05-12T06:21:39.016Z,19.93
2023-05-12T06:22:39.110Z,13.49
2023-05-12T06:23:39.202Z,9.62
2023-05-12T06:24:39.299Z,15.42
2023-05-12T06:25:39.364Z,12.20
2023-05-12T06:26:39.444Z,6.07
2023-05-12T06:27:39.536Z,13.81
2023-05-12T06:28:39.613Z,13.81
2023-05-12T06:29:39.710Z,20.90
2023-05-12T06:30:39.826Z,13.49
2023-05-12T06:31:39.911Z,18.32
2023-05-12T06:32:39.995Z,4.46
2023-05-12T06:33:40.039Z,15.10
2023-05-12T06:34:40.152Z,21.54
2023-05-12T06:35:40.217Z,14.45
2023-05-12T06:36:40.286Z,15.42
2023-05-12T06:37:40.513Z,14.13
2023-05-12T06:38:40.478Z,14.78
2023-05-12T06:39:40.566Z,5.75
2023-05-12T06:40:40.652Z,20.58
2023-05-12T06:41:40.717Z,8.33
2023-05-12T06:42:40.807Z,14.78
2023-05-12T06:43:40.895Z,6.72
2023-05-12T06:44:42.259Z,14.45
2023-05-12T06:45:41.032Z,14.78
2023-05-12T06:46:41.233Z,15.10
2023-05-12T06:47:41.253Z,14.78
2023-05-12T06:48:41.277Z,13.81
2023-05-12T06:49:41.386Z,14.78
2023-05-12T06:50:41.451Z,14.78
2023-05-12T06:51:41.509Z,15.42
2023-05-12T06:52:41.599Z,14.78
2023-05-12T06:53:41.665Z,11.87
2023-05-12T06:54:41.701Z,22.83
2023-05-12T06:55:41.945Z,23.48
2023-05-12T06:56:41.898Z,14.45
2023-05-12T06:57:41.977Z,15.10
2023-05-12T06:58:42.062Z,16.06
2023-05-12T06:59:42.124Z,25.09
2023-05-12T07:00:42.187Z,14.45
2023-05-12T07:01:42.303Z,16.06
2023-05-12T07:02:42.369Z,18.32
2023-05-12T07:03:42.428Z,16.06
2023-05-12T07:04:42.495Z,16.06
2023-05-12T07:05:42.615Z,18.00
2023-05-12T07:06:42.617Z,14.45
2023-05-12T07:07:42.705Z,16.39
2023-05-12T07:08:42.802Z,21.22
2023-05-12T07:09:42.905Z,16.39
2023-05-12T07:10:42.978Z,18.00
2023-05-12T07:11:43.032Z,16.39
2023-05-12T07:12:43.133Z,16.06
2023-05-12T07:13:43.196Z,18.00
2023-05-12T07:14:43.323Z,22.83
2023-05-12T07:15:43.474Z,9.62
2023-05-12T07:16:43.476Z,14.13
2023-05-12T07:17:43.607Z,17.35
2023-05-12T07:18:43.651Z,10.59
2023-05-12T07:19:43.697Z,16.71
2023-05-12T07:20:43.788Z,13.16
2023-05-12T07:21:43.844Z,17.03
2023-05-12T07:22:43.935Z,21.22
2023-05-12T07:23:44.043Z,20.25
2023-05-12T07:24:44.104Z,14.78
2023-05-12T07:25:44.347Z,15.74
2023-05-12T07:26:44.238Z,8.97
2023-05-12T07:27:44.318Z,10.59
2023-05-12T07:28:44.421Z,17.68
2023-05-12T07:29:44.477Z,17.35
2023-05-12T07:30:44.587Z,17.03
2023-05-12T07:31:44.829Z,17.03
2023-05-12T07:32:44.745Z,16.39
2023-05-12T07:33:44.787Z,18.64
2023-05-12T07:34:44.839Z,17.68
2023-05-12T07:35:44.956Z,14.13
2023-05-12T07:36:45.066Z,24.44
2023-05-12T07:37:45.092Z,16.06
2023-05-12T07:38:45.191Z,17.03
2023-05-12T07:39:45.301Z,17.03
2023-05-12T07:40:45.345Z,17.35
2023-05-12T07:41:45.445Z,16.39
2023-05-12T07:42:45.512Z,8.01
2023-05-12T07:43:45.640Z,20.58
2023-05-12T07:44:45.665Z,24.44
2023-05-12T07:45:45.729Z,18.00
2023-05-12T07:46:45.844Z,17.35
2023-05-12T07:47:45.960Z,17.68
2023-05-12T07:48:45.988Z,11.87
2023-05-12T07:49:46.081Z,17.68
2023-05-12T07:50:46.127Z,13.16
2023-05-12T07:51:46.193Z,18.32
2023-05-12T07:52:46.310Z,23.15
2023-05-12T07:53:46.364Z,18.32
2023-05-12T07:54:46.457Z,8.33
2023-05-12T07:55:46.553Z,12.52
2023-05-12T07:56:46.611Z,18.00
2023-05-12T07:57:46.731Z,15.42
2023-05-12T07:58:47.604Z,18.00
2023-05-12T07:59:46.865Z,15.10
2023-05-12T08:00:46.935Z,23.48
2023-05-12T08:01:47.032Z,18.32
2023-05-12T08:02:47.269Z,18.64
2023-05-12T08:03:47.354Z,18.32
2023-05-12T08:04:47.215Z,25.41
2023-05-12T08:05:47.289Z,8.65
2023-05-12T08:06:47.379Z,18.64
2023-05-12T08:07:47.535Z,20.58
2023-05-12T08:08:47.695Z,13.81
2023-05-12T08:09:47.651Z,18.64
2023-05-12T08:10:47.746Z,24.12
2023-05-12T08:11:50.773Z,20.25
2023-05-12T08:12:48.032Z,16.39
2023-05-12T08:13:48.054Z,19.29
2023-05-12T08:14:48.082Z,19.61
2023-05-12T08:15:48.144Z,19.29
2023-05-12T08:16:48.229Z,27.67
2023-05-12T08:17:48.333Z,26.38
2023-05-12T08:18:48.442Z,27.34
2023-05-12T08:19:48.558Z,19.61
2023-05-12T08:20:48.547Z,19.61
2023-05-12T08:21:48.598Z,14.13
2023-05-12T08:22:48.702Z,18.96
2023-05-12T08:23:48.783Z,18.32
2023-05-12T08:24:48.886Z,19.61
2023-05-12T08:25:48.988Z,19.93
2023-05-12T08:26:50.731Z,20.90
2023-05-12T08:27:49.108Z,18.96
2023-05-12T08:28:49.204Z,13.81
2023-05-12T08:29:49.306Z,20.25
2023-05-12T08:30:49.447Z,22.19
2023-05-12T08:31:49.480Z,10.91
2023-05-12T08:32:49.579Z,20.90
2023-05-12T08:33:51.854Z,21.54
2023-05-12T08:34:49.694Z,13.16
2023-05-12T08:35:49.805Z,20.25
2023-05-12T08:36:49.879Z,19.29
2023-05-12T08:37:49.994Z,20.25
2023-05-12T08:38:50.036Z,20.90
2023-05-12T08:39:50.102Z,21.22
2023-05-12T08:40:50.205Z,15.74
2023-05-12T08:41:50.287Z,20.90
2023-05-12T08:42:50.351Z,20.25
2023-05-12T08:43:50.438Z,18.64
2023-05-12T08:44:50.548Z,26.05
2023-05-12T08:45:50.593Z,14.13
2023-05-12T08:46:50.820Z,29.28
2023-05-12T08:47:50.758Z,13.16
2023-05-12T08:48:50.840Z,22.51
2023-05-12T08:49:52.476Z,15.10
2023-05-12T08:50:50.955Z,16.71
2023-05-12T08:51:57.606Z,22.51
2023-05-12T08:52:51.145Z,20.90
2023-05-12T08:53:51.209Z,20.58
2023-05-12T08:54:55.980Z,12.52
2023-05-12T08:57:08.308Z,23.48
2023-05-12T08:57:15.075Z,21.87
2023-05-12T08:57:51.526Z,21.22
2023-05-12T08:58:51.583Z,12.20
2023-05-12T08:59:51.692Z,22.51
2023-05-12T09:00:51.789Z,21.22
2023-05-12T09:01:51.862Z,18.96
2023-05-12T09:02:54.498Z,26.38
2023-05-12T09:03:52.027Z,22.51
2023-05-12T09:04:52.190Z,14.13
2023-05-12T09:05:52.194Z,21.54
2023-05-12T09:06:54.969Z,21.54
2023-05-12T09:07:52.332Z,23.15
2023-05-12T09:08:52.440Z,16.39
2023-05-12T09:09:52.490Z,21.87
2023-05-12T09:10:52.587Z,27.67
2023-05-12T09:11:52.704Z,23.80
2023-05-12T09:12:52.758Z,21.87
2023-05-12T09:13:52.877Z,18.64
2023-05-12T09:14:52.981Z,16.71
2023-05-12T09:15:53.046Z,13.81
2023-05-12T09:16:53.188Z,30.24
2023-05-12T09:17:53.396Z,14.78
2023-05-12T09:18:53.387Z,26.38
2023-05-12T09:19:53.384Z,21.87
2023-05-12T09:20:53.499Z,22.51
2023-05-12T09:21:53.562Z,22.51
2023-05-12T09:22:53.626Z,24.44
2023-05-12T09:23:53.726Z,22.83
2023-05-12T09:24:53.796Z,23.80
2023-05-12T09:25:53.873Z,23.15
2023-05-12T09:26:53.965Z,22.51
2023-05-12T09:27:54.011Z,22.51
2023-05-12T09:28:54.123Z,22.83
2023-05-12T09:29:59.174Z,23.15
2023-05-12T09:30:54.225Z,27.67
2023-05-12T09:31:54.304Z,22.51
2023-05-12T09:32:54.459Z,23.15
2023-05-12T09:33:54.429Z,15.74
2023-05-12T09:34:54.532Z,13.49
2023-05-12T09:35:54.598Z,21.54
2023-05-12T09:36:54.664Z,24.12
2023-05-12T09:37:54.736Z,24.77
2023-05-12T09:38:54.830Z,23.15
2023-05-12T09:39:54.880Z,18.32
2023-05-12T09:40:54.981Z,28.96
2023-05-12T09:41:55.077Z,16.71
2023-05-12T09:42:55.128Z,28.96
2023-05-12T09:43:55.235Z,22.19
2023-05-12T09:44:55.305Z,23.48
2023-05-12T09:45:55.388Z,25.73
2023-05-12T09:46:55.428Z,24.12
2023-05-12T09:47:55.560Z,24.12
2023-05-12T09:48:56.150Z,23.48
2023-05-12T09:49:55.644Z,33.14
2023-05-12T09:50:55.690Z,24.77
2023-05-12T09:51:55.790Z,23.15
2023-05-12T09:52:55.906Z,28.63
2023-05-12T09:53:55.958Z,29.60
2023-05-12T09:54:56.064Z,15.42
2023-05-12T09:55:56.116Z,23.48
2023-05-12T09:56:56.230Z,16.39
2023-05-12T09:57:56.312Z,21.54
2023-05-12T09:58:56.364Z,20.58
2023-05-12T09:59:56.464Z,24.12
2023-05-12T10:01:17.700Z,23.80
2023-05-12T10:01:56.629Z,28.96
2023-05-12T10:02:56.737Z,31.21
2023-05-12T10:03:56.801Z,25.09
2023-05-12T10:04:56.884Z,32.50
2023-05-12T10:05:56.921Z,30.57
2023-05-12T10:06:57.013Z,33.47
2023-05-12T10:07:57.124Z,33.47
2023-05-12T10:08:57.186Z,25.41
2023-05-12T10:09:57.264Z,30.89
2023-05-12T10:10:58.271Z,30.89
2023-05-12T10:11:57.398Z,25.09
2023-05-12T10:12:57.497Z,24.44
2023-05-12T10:13:57.583Z,31.53
2023-05-12T10:14:57.646Z,20.90
2023-05-12T10:15:57.760Z,25.09
2023-05-12T10:16:57.865Z,24.77
2023-05-12T10:17:57.990Z,25.73
2023-05-12T10:18:58.028Z,24.77
2023-05-12T10:19:58.078Z,25.41
2023-05-12T10:20:58.165Z,32.50
2023-05-12T10:21:58.259Z,25.41
2023-05-12T10:22:58.323Z,23.48
2023-05-12T10:23:58.444Z,30.57
2023-05-12T10:24:58.494Z,25.73
2023-05-12T10:25:58.611Z,30.24
2023-05-12T10:26:58.664Z,32.82
2023-05-12T10:27:58.703Z,25.73
2023-05-12T10:28:58.827Z,26.70
2023-05-12T10:29:58.912Z,25.09
2023-05-12T10:30:59.079Z,26.38
2023-05-12T10:31:59.046Z,25.41
2023-05-12T10:32:59.144Z,25.73
2023-05-12T10:33:59.199Z,25.41
2023-05-12T10:34:59.318Z,25.41
2023-05-12T10:35:59.357Z,27.02
2023-05-12T10:36:59.452Z,26.05
2023-05-12T10:37:59.547Z,25.73
2023-05-12T10:38:59.641Z,25.41
2023-05-12T10:39:59.745Z,18.64
2023-05-12T10:40:59.821Z,26.38
2023-05-12T10:41:59.978Z,29.60
2023-05-12T10:42:59.975Z,31.53
2023-05-12T10:44:00.135Z,28.31
2023-05-12T10:45:00.151Z,24.44
2023-05-12T10:46:00.226Z,26.38
2023-05-12T10:47:00.292Z,31.53
2023-05-12T10:48:00.371Z,29.92
2023-05-12T10:49:00.449Z,29.92
2023-05-12T10:50:00.526Z,29.60
2023-05-12T10:51:00.584Z,26.38
2023-05-12T10:52:00.640Z,25.41
2023-05-12T10:53:00.747Z,20.90
2023-05-12T10:54:00.857Z,22.83
2023-05-12T10:55:00.968Z,31.21
2023-05-12T10:56:01.233Z,30.89
2023-05-12T10:57:01.234Z,26.38
2023-05-12T10:58:01.372Z,32.50
2023-05-12T10:59:01.322Z,27.99
2023-05-12T11:00:02.473Z,34.11
2023-05-12T11:01:02.070Z,23.15
2023-05-12T11:02:03.054Z,26.70
2023-05-12T11:03:08.152Z,27.02
2023-05-12T11:04:01.719Z,27.02
2023-05-12T11:05:01.890Z,27.02
2023-05-12T11:06:02.862Z,22.51
2023-05-12T11:07:02.938Z,26.38
2023-05-12T11:08:02.673Z,20.25
2023-05-12T11:09:03.048Z,19.61
2023-05-12T11:10:02.410Z,23.15
2023-05-12T11:11:03.229Z,27.02
2023-05-12T11:12:02.864Z,27.02
2023-05-12T11:13:02.370Z,20.58
2023-05-12T11:14:02.483Z,20.25
2023-05-12T11:15:02.569Z,27.67
2023-05-12T11:16:02.650Z,27.34
2023-05-12T11:17:02.746Z,27.99
2023-05-12T11:18:02.911Z,27.67
2023-05-12T11:19:03.063Z,27.34
2023-05-12T11:20:02.993Z,32.82
2023-05-12T11:21:03.057Z,29.60
2023-05-12T11:22:03.157Z,27.99
2023-05-12T11:23:03.517Z,27.99
2023-05-12T11:24:03.323Z,24.44
2023-05-12T11:25:03.412Z,18.64
2023-05-12T11:26:03.466Z,28.31
2023-05-12T11:27:03.529Z,35.40
2023-05-12T11:28:03.591Z,27.67
2023-05-12T11:29:03.668Z,32.50
2023-05-12T11:30:03.726Z,27.34
2023-05-12T11:31:03.847Z,24.77
2023-05-12T11:32:03.937Z,19.61
2023-05-12T11:33:04.273Z,27.34
2023-05-12T11:34:11.959Z,31.21
2023-05-12T11:35:04.191Z,30.24
2023-05-12T11:36:04.254Z,22.51
2023-05-12T11:37:04.318Z,28.96
2023-05-12T11:38:04.570Z,34.43
2023-05-12T11:39:04.472Z,26.05
2023-05-12T11:40:04.575Z,28.31
2023-05-12T11:41:04.635Z,27.99
2023-05-12T11:42:12.272Z,35.08
2023-05-12T11:43:04.791Z,26.38
2023-05-12T11:44:04.940Z,27.34
2023-05-12T11:45:04.987Z,35.08
2023-05-12T11:46:05.057Z,28.31
2023-05-12T11:47:05.125Z,33.79
2023-05-12T11:48:05.345Z,30.24
2023-05-12T11:49:05.327Z,28.96
2023-05-12T11:50:05.391Z,20.90
2023-05-12T11:51:05.596Z,27.99
2023-05-12T11:52:05.569Z,25.41
2023-05-12T11:53:05.681Z,26.38
2023-05-12T11:54:06.237Z,27.67
2023-05-12T11:55:05.977Z,20.90
2023-05-12T11:56:05.930Z,23.80
2023-05-12T11:57:05.974Z,28.31
2023-05-12T11:58:06.045Z,19.29
2023-05-12T11:59:06.256Z,28.63
2023-05-12T12:00:06.201Z,30.57
2023-05-12T12:01:06.267Z,27.67
2023-05-12T12:02:06.354Z,27.99
2023-05-12T12:03:06.582Z,27.67
2023-05-12T12:04:06.604Z,33.47
2023-05-12T12:05:08.576Z,27.02
2023-05-12T12:06:06.656Z,27.67
2023-05-12T12:07:06.688Z,26.70
2023-05-12T12:08:06.816Z,30.57
2023-05-12T12:09:06.866Z,27.34
2023-05-12T12:10:06.945Z,27.34
2023-05-12T12:11:07.086Z,27.02
2023-05-12T12:12:07.077Z,28.96
2023-05-12T12:13:07.163Z,27.67
2023-05-12T12:14:07.322Z,27.67
2023-05-12T12:15:07.359Z,17.68
2023-05-12T12:16:07.460Z,27.34
2023-05-12T12:17:07.505Z,34.11
2023-05-12T12:18:07.677Z,24.44
2023-05-12T12:19:07.759Z,29.60
2023-05-12T12:20:07.874Z,18.00
2023-05-12T12:21:07.828Z,27.67
2023-05-12T12:22:07.887Z,27.34
2023-05-12T12:23:07.942Z,18.64
2023-05-12T12:24:08.040Z,27.02
2023-05-12T12:25:08.136Z,27.34
2023-05-12T12:26:08.241Z,27.34
2023-05-12T12:27:08.310Z,27.02
2023-05-12T12:28:08.395Z,19.61
2023-05-12T12:29:08.482Z,27.34
2023-05-12T12:30:08.543Z,16.06
2023-05-12T12:31:08.734Z,28.96
2023-05-12T12:32:08.724Z,27.02
2023-05-12T12:33:08.842Z,22.51
2023-05-12T12:34:08.928Z,27.34
2023-05-12T12:35:08.942Z,26.70
2023-05-12T12:36:09.050Z,24.12
2023-05-12T12:37:09.065Z,27.34
2023-05-12T12:38:09.174Z,24.12
2023-05-12T12:39:09.233Z,19.29
2023-05-12T12:40:09.335Z,26.70
2023-05-12T12:41:09.401Z,26.05
2023-05-12T12:42:09.539Z,26.70
2023-05-12T12:43:09.573Z,27.02
2023-05-12T12:44:09.666Z,19.29
2023-05-12T12:45:09.748Z,32.82
2023-05-12T12:46:09.811Z,27.99
2023-05-12T12:47:10.065Z,26.05
2023-05-12T12:48:09.994Z,26.70
2023-05-12T12:49:10.043Z,26.70
2023-05-12T12:50:10.243Z,27.02
2023-05-12T12:51:10.206Z,26.05
2023-05-12T12:52:10.333Z,25.73
2023-05-12T12:53:10.422Z,33.47
2023-05-12T12:54:10.527Z,35.08
2023-05-12T12:55:10.527Z,26.38
2023-05-12T12:56:10.596Z,25.09
2023-05-12T12:57:10.708Z,32.18